sensor_id;sensor_type;location;lat;lon;timestamp;temperature;humidity
22526;DHT22;11429;50.842;4.386;2022-10-31T00:01:24;15.60;99.90
22526;DHT22;11429;50.842;4.386;2022-10-31T00:03:50;15.80;99.90
22526;DHT22;11429;50.842;4.386;2022-10-31T00:06:16;15.80;99.90
22526;DHT22;11429;50.842;4.386;2022-10-31T00:08:52;15.80;99.90
22526;DHT22;11429;50.842;4.386;2022-10-31T00:11:18;15.80;99.90
22526;DHT22;11429;50.842;4.386;2022-10-31T00:13:44;15.80;99.90
22526;DHT22;11429;50.842;4.386;2022-10-31T00:16:17;15.40;99.90
22526;DHT22;11429;50.842;4.386;2022-10-31T00:18:43;15.20;99.90
22526;DHT22;11429;50.842;4.386;2022-10-31T00:21:09;15.00;99.90
22526;DHT22;11429;50.842;4.386;2022-10-31T00:23:34;15.10;99.90
22526;DHT22;11429;50.842;4.386;2022-10-31T00:26:02;15.10;99.90
22526;DHT22;11429;50.842;4.386;2022-10-31T00:28:27;15.00;99.90
22526;DHT22;11429;50.842;4.386;2022-10-31T00:30:58;14.90;99.90
22526;DHT22;11429;50.842;4.386;2022-10-31T00:33:24;15.00;99.90
22526;DHT22;11429;50.842;4.386;2022-10-31T00:35:50;15.10;99.90
22526;DHT22;11429;50.842;4.386;2022-10-31T00:38:16;15.10;99.90
22526;DHT22;11429;50.842;4.386;2022-10-31T00:40:41;15.10;99.90
22526;DHT22;11429;50.842;4.386;2022-10-31T00:43:07;15.10;99.90
22526;DHT22;11429;50.842;4.386;2022-10-31T00:45:33;15.10;99.90
22526;DHT22;11429;50.842;4.386;2022-10-31T00:47:58;15.10;99.90
22526;DHT22;11429;50.842;4.386;2022-10-31T00:50:24;15.10;99.90
22526;DHT22;11429;50.842;4.386;2022-10-31T00:52:49;14.90;99.90
22526;DHT22;11429;50.842;4.386;2022-10-31T00:55:15;14.90;99.90
22526;DHT22;11429;50.842;4.386;2022-10-31T00:57:41;15.00;99.90
22526;DHT22;11429;50.842;4.386;2022-10-31T01:00:07;14.80;99.90
22526;DHT22;11429;50.842;4.386;2022-10-31T01:02:33;14.60;99.90
22526;DHT22;11429;50.842;4.386;2022-10-31T01:04:58;14.70;99.90
22526;DHT22;11429;50.842;4.386;2022-10-31T01:07:27;14.90;99.90
22526;DHT22;11429;50.842;4.386;2022-10-31T01:09:52;14.90;99.90
22526;DHT22;11429;50.842;4.386;2022-10-31T01:12:18;14.90;99.90
22526;DHT22;11429;50.842;4.386;2022-10-31T01:14:45;14.60;99.90
22526;DHT22;11429;50.842;4.386;2022-10-31T01:17:11;14.50;99.90
22526;DHT22;11429;50.842;4.386;2022-10-31T01:19:37;14.40;99.90
22526;DHT22;11429;50.842;4.386;2022-10-31T01:22:03;14.50;99.90
22526;DHT22;11429;50.842;4.386;2022-10-31T01:24:28;14.60;99.90
22526;DHT22;11429;50.842;4.386;2022-10-31T01:26:54;14.50;99.90
22526;DHT22;11429;50.842;4.386;2022-10-31T01:29:21;14.70;99.90
22526;DHT22;11429;50.842;4.386;2022-10-31T01:31:47;14.70;99.90
22526;DHT22;11429;50.842;4.386;2022-10-31T01:34:14;14.60;99.90
22526;DHT22;11429;50.842;4.386;2022-10-31T01:36:49;14.70;99.90
22526;DHT22;11429;50.842;4.386;2022-10-31T01:39:23;14.70;99.90
22526;DHT22;11429;50.842;4.386;2022-10-31T01:41:51;14.70;99.90
22526;DHT22;11429;50.842;4.386;2022-10-31T01:52:02;14.50;99.90
22526;DHT22;11429;50.842;4.386;2022-10-31T01:54:34;14.40;99.90
22526;DHT22;11429;50.842;4.386;2022-10-31T01:57:05;14.50;99.90
22526;DHT22;11429;50.842;4.386;2022-10-31T01:59:37;14.50;99.90
22526;DHT22;11429;50.842;4.386;2022-10-31T02:02:08;14.50;99.90
22526;DHT22;11429;50.842;4.386;2022-10-31T02:04:35;14.50;99.90
22526;DHT22;11429;50.842;4.386;2022-10-31T02:07:08;14.50;99.90
22526;DHT22;11429;50.842;4.386;2022-10-31T02:09:36;14.50;99.90
22526;DHT22;11429;50.842;4.386;2022-10-31T02:12:02;14.30;99.90
22526;DHT22;11429;50.842;4.386;2022-10-31T02:14:30;14.20;99.90
22526;DHT22;11429;50.842;4.386;2022-10-31T02:16:57;14.10;99.90
22526;DHT22;11429;50.842;4.386;2022-10-31T02:19:37;14.30;99.90
22526;DHT22;11429;50.842;4.386;2022-10-31T02:30:07;14.50;99.90
22526;DHT22;11429;50.842;4.386;2022-10-31T02:41:04;14.30;99.90
22526;DHT22;11429;50.842;4.386;2022-10-31T02:43:44;14.10;99.90
22526;DHT22;11429;50.842;4.386;2022-10-31T02:46:16;14.30;99.90
22526;DHT22;11429;50.842;4.386;2022-10-31T02:48:45;14.30;99.90
22526;DHT22;11429;50.842;4.386;2022-10-31T02:51:12;14.20;99.90
22526;DHT22;11429;50.842;4.386;2022-10-31T02:53:39;14.20;99.90
22526;DHT22;11429;50.842;4.386;2022-10-31T02:56:17;14.20;99.90
22526;DHT22;11429;50.842;4.386;2022-10-31T02:58:49;14.10;99.90
22526;DHT22;11429;50.842;4.386;2022-10-31T03:01:56;14.00;99.90
22526;DHT22;11429;50.842;4.386;2022-10-31T03:15:32;14.20;99.90
22526;DHT22;11429;50.842;4.386;2022-10-31T03:18:29;14.20;99.90
22526;DHT22;11429;50.842;4.386;2022-10-31T03:21:14;14.20;99.90
22526;DHT22;11429;50.842;4.386;2022-10-31T03:23:44;14.20;99.90
22526;DHT22;11429;50.842;4.386;2022-10-31T03:26:12;14.10;99.90
22526;DHT22;11429;50.842;4.386;2022-10-31T03:28:57;13.80;99.90
22526;DHT22;11429;50.842;4.386;2022-10-31T03:31:30;13.80;99.90
22526;DHT22;11429;50.842;4.386;2022-10-31T03:33:58;13.60;99.90
22526;DHT22;11429;50.842;4.386;2022-10-31T03:36:26;13.70;99.90
22526;DHT22;11429;50.842;4.386;2022-10-31T03:38:53;13.70;99.90
22526;DHT22;11429;50.842;4.386;2022-10-31T03:41:23;13.50;99.90
22526;DHT22;11429;50.842;4.386;2022-10-31T03:43:57;13.70;99.90
22526;DHT22;11429;50.842;4.386;2022-10-31T03:46:24;13.80;99.90
22526;DHT22;11429;50.842;4.386;2022-10-31T03:48:50;13.80;99.90
22526;DHT22;11429;50.842;4.386;2022-10-31T03:51:19;13.80;99.90
22526;DHT22;11429;50.842;4.386;2022-10-31T03:54:04;13.80;99.90
22526;DHT22;11429;50.842;4.386;2022-10-31T03:56:36;13.90;99.90
22526;DHT22;11429;50.842;4.386;2022-10-31T03:59:10;13.60;99.90
22526;DHT22;11429;50.842;4.386;2022-10-31T04:01:42;13.70;99.90
22526;DHT22;11429;50.842;4.386;2022-10-31T04:04:10;13.60;99.90
22526;DHT22;11429;50.842;4.386;2022-10-31T04:06:39;13.50;99.90
22526;DHT22;11429;50.842;4.386;2022-10-31T04:09:06;13.80;99.90
22526;DHT22;11429;50.842;4.386;2022-10-31T04:11:36;13.50;99.90
22526;DHT22;11429;50.842;4.386;2022-10-31T04:14:04;13.30;99.90
22526;DHT22;11429;50.842;4.386;2022-10-31T04:16:31;13.30;99.90
22526;DHT22;11429;50.842;4.386;2022-10-31T04:18:57;13.30;99.90
22526;DHT22;11429;50.842;4.386;2022-10-31T04:21:29;13.40;99.90
22526;DHT22;11429;50.842;4.386;2022-10-31T04:23:56;13.40;99.90
22526;DHT22;11429;50.842;4.386;2022-10-31T04:26:22;13.30;99.90
22526;DHT22;11429;50.842;4.386;2022-10-31T04:28:48;13.10;99.90
22526;DHT22;11429;50.842;4.386;2022-10-31T04:31:14;13.10;99.90
22526;DHT22;11429;50.842;4.386;2022-10-31T04:33:40;13.10;99.90
22526;DHT22;11429;50.842;4.386;2022-10-31T04:36:05;13.10;99.90
22526;DHT22;11429;50.842;4.386;2022-10-31T04:38:31;13.20;99.90
22526;DHT22;11429;50.842;4.386;2022-10-31T04:40:57;13.20;99.90
22526;DHT22;11429;50.842;4.386;2022-10-31T04:43:22;13.20;99.90
22526;DHT22;11429;50.842;4.386;2022-10-31T04:45:48;13.20;99.90
22526;DHT22;11429;50.842;4.386;2022-10-31T04:48:14;13.10;99.90
22526;DHT22;11429;50.842;4.386;2022-10-31T04:50:40;13.20;99.90
22526;DHT22;11429;50.842;4.386;2022-10-31T04:53:05;13.20;99.90
22526;DHT22;11429;50.842;4.386;2022-10-31T04:55:31;13.00;99.90
22526;DHT22;11429;50.842;4.386;2022-10-31T04:57:57;13.00;99.90
22526;DHT22;11429;50.842;4.386;2022-10-31T05:00:23;13.10;99.90
22526;DHT22;11429;50.842;4.386;2022-10-31T05:02:51;12.90;99.90
22526;DHT22;11429;50.842;4.386;2022-10-31T05:05:18;13.00;99.90
22526;DHT22;11429;50.842;4.386;2022-10-31T05:07:45;12.90;99.90
22526;DHT22;11429;50.842;4.386;2022-10-31T05:10:17;12.80;99.90
22526;DHT22;11429;50.842;4.386;2022-10-31T05:12:47;12.90;99.90
22526;DHT22;11429;50.842;4.386;2022-10-31T05:15:14;13.00;99.90
22526;DHT22;11429;50.842;4.386;2022-10-31T05:17:39;13.10;99.90
22526;DHT22;11429;50.842;4.386;2022-10-31T05:20:05;13.30;99.90
22526;DHT22;11429;50.842;4.386;2022-10-31T05:22:31;13.20;99.90
22526;DHT22;11429;50.842;4.386;2022-10-31T05:24:57;13.10;99.90
22526;DHT22;11429;50.842;4.386;2022-10-31T05:27:22;13.00;99.90
22526;DHT22;11429;50.842;4.386;2022-10-31T05:29:48;13.10;99.90
22526;DHT22;11429;50.842;4.386;2022-10-31T05:32:13;13.10;99.90
22526;DHT22;11429;50.842;4.386;2022-10-31T05:34:39;13.10;99.90
22526;DHT22;11429;50.842;4.386;2022-10-31T05:37:05;13.10;99.90
22526;DHT22;11429;50.842;4.386;2022-10-31T05:39:30;13.00;99.90
22526;DHT22;11429;50.842;4.386;2022-10-31T05:41:56;12.90;99.90
22526;DHT22;11429;50.842;4.386;2022-10-31T05:44:22;12.90;99.90
22526;DHT22;11429;50.842;4.386;2022-10-31T05:46:47;13.00;99.90
22526;DHT22;11429;50.842;4.386;2022-10-31T05:49:13;12.90;99.90
22526;DHT22;11429;50.842;4.386;2022-10-31T05:51:39;12.80;99.90
22526;DHT22;11429;50.842;4.386;2022-10-31T05:54:04;12.80;99.90
22526;DHT22;11429;50.842;4.386;2022-10-31T05:56:30;12.70;99.90
22526;DHT22;11429;50.842;4.386;2022-10-31T05:58:56;12.80;99.90
22526;DHT22;11429;50.842;4.386;2022-10-31T06:01:21;12.90;99.90
22526;DHT22;11429;50.842;4.386;2022-10-31T06:03:47;13.00;99.90
22526;DHT22;11429;50.842;4.386;2022-10-31T06:06:13;13.10;99.90
22526;DHT22;11429;50.842;4.386;2022-10-31T06:08:38;13.10;99.90
22526;DHT22;11429;50.842;4.386;2022-10-31T06:11:04;13.10;99.90
22526;DHT22;11429;50.842;4.386;2022-10-31T06:13:30;13.20;99.90
22526;DHT22;11429;50.842;4.386;2022-10-31T06:15:55;13.20;99.90
22526;DHT22;11429;50.842;4.386;2022-10-31T06:18:21;13.30;99.90
22526;DHT22;11429;50.842;4.386;2022-10-31T06:20:46;13.40;99.90
22526;DHT22;11429;50.842;4.386;2022-10-31T06:23:12;13.40;99.90
22526;DHT22;11429;50.842;4.386;2022-10-31T06:25:38;13.30;99.90
22526;DHT22;11429;50.842;4.386;2022-10-31T06:28:04;13.30;99.90
22526;DHT22;11429;50.842;4.386;2022-10-31T06:30:30;13.40;99.90
22526;DHT22;11429;50.842;4.386;2022-10-31T06:33:02;13.30;99.90
22526;DHT22;11429;50.842;4.386;2022-10-31T06:35:27;13.40;99.90
22526;DHT22;11429;50.842;4.386;2022-10-31T06:37:54;13.40;99.90
22526;DHT22;11429;50.842;4.386;2022-10-31T06:40:19;13.30;99.90
22526;DHT22;11429;50.842;4.386;2022-10-31T06:42:45;13.30;99.90
22526;DHT22;11429;50.842;4.386;2022-10-31T06:45:11;13.40;99.90
22526;DHT22;11429;50.842;4.386;2022-10-31T06:47:36;13.40;99.90
22526;DHT22;11429;50.842;4.386;2022-10-31T06:50:02;13.50;99.90
22526;DHT22;11429;50.842;4.386;2022-10-31T06:52:28;13.60;99.90
22526;DHT22;11429;50.842;4.386;2022-10-31T06:54:54;13.80;99.90
22526;DHT22;11429;50.842;4.386;2022-10-31T06:57:19;13.80;99.90
22526;DHT22;11429;50.842;4.386;2022-10-31T06:59:45;13.70;99.90
22526;DHT22;11429;50.842;4.386;2022-10-31T07:02:11;13.70;99.90
22526;DHT22;11429;50.842;4.386;2022-10-31T07:04:37;13.80;99.90
22526;DHT22;11429;50.842;4.386;2022-10-31T07:07:02;13.70;99.90
22526;DHT22;11429;50.842;4.386;2022-10-31T07:09:28;13.60;99.90
22526;DHT22;11429;50.842;4.386;2022-10-31T07:11:54;13.60;99.90
22526;DHT22;11429;50.842;4.386;2022-10-31T07:14:20;13.50;99.90
22526;DHT22;11429;50.842;4.386;2022-10-31T07:16:51;13.60;99.90
22526;DHT22;11429;50.842;4.386;2022-10-31T07:19:17;13.60;99.90
22526;DHT22;11429;50.842;4.386;2022-10-31T07:21:43;13.70;99.90
22526;DHT22;11429;50.842;4.386;2022-10-31T07:24:09;13.60;99.90
22526;DHT22;11429;50.842;4.386;2022-10-31T07:26:34;13.60;99.90
22526;DHT22;11429;50.842;4.386;2022-10-31T07:29:00;13.50;99.90
22526;DHT22;11429;50.842;4.386;2022-10-31T07:31:26;13.50;99.90
22526;DHT22;11429;50.842;4.386;2022-10-31T07:33:51;13.50;99.90
22526;DHT22;11429;50.842;4.386;2022-10-31T07:36:17;13.60;99.90
22526;DHT22;11429;50.842;4.386;2022-10-31T07:38:42;13.70;99.90
22526;DHT22;11429;50.842;4.386;2022-10-31T07:41:08;13.80;99.90
22526;DHT22;11429;50.842;4.386;2022-10-31T07:43:35;13.80;99.90
22526;DHT22;11429;50.842;4.386;2022-10-31T07:46:00;14.00;99.90
22526;DHT22;11429;50.842;4.386;2022-10-31T07:48:26;14.10;99.90
22526;DHT22;11429;50.842;4.386;2022-10-31T07:50:52;14.10;99.90
22526;DHT22;11429;50.842;4.386;2022-10-31T07:53:17;14.10;99.90
22526;DHT22;11429;50.842;4.386;2022-10-31T07:55:44;14.10;99.90
22526;DHT22;11429;50.842;4.386;2022-10-31T07:58:12;14.20;99.90
22526;DHT22;11429;50.842;4.386;2022-10-31T08:00:39;14.40;99.90
22526;DHT22;11429;50.842;4.386;2022-10-31T08:03:09;14.50;99.90
22526;DHT22;11429;50.842;4.386;2022-10-31T08:05:35;14.50;99.90
22526;DHT22;11429;50.842;4.386;2022-10-31T08:08:03;14.70;99.90
22526;DHT22;11429;50.842;4.386;2022-10-31T08:10:29;14.80;99.90
22526;DHT22;11429;50.842;4.386;2022-10-31T08:13:05;14.70;99.90
22526;DHT22;11429;50.842;4.386;2022-10-31T08:15:32;14.90;99.90
22526;DHT22;11429;50.842;4.386;2022-10-31T08:20:54;14.70;99.90
22526;DHT22;11429;50.842;4.386;2022-10-31T08:23:19;14.80;99.90
22526;DHT22;11429;50.842;4.386;2022-10-31T08:25:45;14.90;99.90
22526;DHT22;11429;50.842;4.386;2022-10-31T08:28:13;15.00;99.90
22526;DHT22;11429;50.842;4.386;2022-10-31T08:30:40;15.10;99.90
22526;DHT22;11429;50.842;4.386;2022-10-31T08:33:10;15.00;99.90
22526;DHT22;11429;50.842;4.386;2022-10-31T08:35:37;14.90;99.90
22526;DHT22;11429;50.842;4.386;2022-10-31T08:38:03;14.90;99.90
22526;DHT22;11429;50.842;4.386;2022-10-31T08:40:31;15.00;99.90
22526;DHT22;11429;50.842;4.386;2022-10-31T08:43:17;15.00;99.90
22526;DHT22;11429;50.842;4.386;2022-10-31T08:45:44;15.30;99.90
22526;DHT22;11429;50.842;4.386;2022-10-31T08:48:15;15.70;99.90
22526;DHT22;11429;50.842;4.386;2022-10-31T08:50:44;15.90;99.90
22526;DHT22;11429;50.842;4.386;2022-10-31T08:53:16;15.90;99.90
22526;DHT22;11429;50.842;4.386;2022-10-31T08:55:42;15.60;99.90
22526;DHT22;11429;50.842;4.386;2022-10-31T08:58:13;15.40;99.90
22526;DHT22;11429;50.842;4.386;2022-10-31T09:00:39;15.30;99.90
22526;DHT22;11429;50.842;4.386;2022-10-31T09:03:08;15.20;99.90
22526;DHT22;11429;50.842;4.386;2022-10-31T09:05:35;15.30;99.90
22526;DHT22;11429;50.842;4.386;2022-10-31T09:08:03;15.30;99.90
22526;DHT22;11429;50.842;4.386;2022-10-31T09:10:30;15.30;99.90
22526;DHT22;11429;50.842;4.386;2022-10-31T09:13:08;15.30;99.90
22526;DHT22;11429;50.842;4.386;2022-10-31T09:15:36;15.30;99.90
22526;DHT22;11429;50.842;4.386;2022-10-31T09:18:07;15.40;99.90
22526;DHT22;11429;50.842;4.386;2022-10-31T09:20:35;15.30;99.90
22526;DHT22;11429;50.842;4.386;2022-10-31T09:23:06;15.40;99.90
22526;DHT22;11429;50.842;4.386;2022-10-31T09:25:33;15.70;99.90
22526;DHT22;11429;50.842;4.386;2022-10-31T09:28:00;15.50;99.90
22526;DHT22;11429;50.842;4.386;2022-10-31T09:30:28;15.40;99.90
22526;DHT22;11429;50.842;4.386;2022-10-31T09:32:56;15.40;99.90
22526;DHT22;11429;50.842;4.386;2022-10-31T09:35:22;15.30;99.90
22526;DHT22;11429;50.842;4.386;2022-10-31T09:37:57;15.30;99.90
22526;DHT22;11429;50.842;4.386;2022-10-31T09:51:23;15.30;99.90
22526;DHT22;11429;50.842;4.386;2022-10-31T09:56:45;15.50;99.90
22526;DHT22;11429;50.842;4.386;2022-10-31T10:04:51;15.80;99.90
22526;DHT22;11429;50.842;4.386;2022-10-31T10:09:53;16.00;99.90
22526;DHT22;11429;50.842;4.386;2022-10-31T10:26:20;16.90;99.90
22526;DHT22;11429;50.842;4.386;2022-10-31T10:29:02;17.00;99.90
22526;DHT22;11429;50.842;4.386;2022-10-31T10:31:37;17.10;99.90
22526;DHT22;11429;50.842;4.386;2022-10-31T10:37:28;17.30;99.90
22526;DHT22;11429;50.842;4.386;2022-10-31T10:40:11;17.40;99.90
22526;DHT22;11429;50.842;4.386;2022-10-31T10:42:39;17.40;99.90
22526;DHT22;11429;50.842;4.386;2022-10-31T10:45:24;17.10;99.90
22526;DHT22;11429;50.842;4.386;2022-10-31T10:49:02;16.90;99.90
22526;DHT22;11429;50.842;4.386;2022-10-31T10:51:15;17.10;99.90
22526;DHT22;11429;50.842;4.386;2022-10-31T10:53:57;17.30;99.90
22526;DHT22;11429;50.842;4.386;2022-10-31T10:59:02;17.30;99.90
22526;DHT22;11429;50.842;4.386;2022-10-31T11:01:28;17.30;99.90
22526;DHT22;11429;50.842;4.386;2022-10-31T11:03:54;17.60;99.90
22526;DHT22;11429;50.842;4.386;2022-10-31T11:06:22;18.00;99.90
22526;DHT22;11429;50.842;4.386;2022-10-31T11:08:51;18.50;99.90
22526;DHT22;11429;50.842;4.386;2022-10-31T11:13:45;18.30;99.90
22526;DHT22;11429;50.842;4.386;2022-10-31T11:16:15;18.00;99.90
22526;DHT22;11429;50.842;4.386;2022-10-31T11:18:52;18.20;99.90
22526;DHT22;11429;50.842;4.386;2022-10-31T11:21:29;18.50;99.90
22526;DHT22;11429;50.842;4.386;2022-10-31T11:24:15;18.80;99.90
22526;DHT22;11429;50.842;4.386;2022-10-31T11:26:43;18.80;99.90
22526;DHT22;11429;50.842;4.386;2022-10-31T11:29:15;18.70;99.90
22526;DHT22;11429;50.842;4.386;2022-10-31T11:31:42;18.50;99.90
22526;DHT22;11429;50.842;4.386;2022-10-31T11:34:28;18.60;99.90
22526;DHT22;11429;50.842;4.386;2022-10-31T11:37:08;18.70;99.90
22526;DHT22;11429;50.842;4.386;2022-10-31T11:39:43;18.50;99.90
22526;DHT22;11429;50.842;4.386;2022-10-31T11:42:12;18.70;99.90
22526;DHT22;11429;50.842;4.386;2022-10-31T11:44:42;18.40;99.90
22526;DHT22;11429;50.842;4.386;2022-10-31T11:47:16;18.10;99.90
22526;DHT22;11429;50.842;4.386;2022-10-31T11:49:45;18.10;99.90
22526;DHT22;11429;50.842;4.386;2022-10-31T11:52:21;18.10;99.90
22526;DHT22;11429;50.842;4.386;2022-10-31T11:54:55;18.10;99.90
22526;DHT22;11429;50.842;4.386;2022-10-31T11:57:26;18.30;99.90
22526;DHT22;11429;50.842;4.386;2022-10-31T11:59:54;18.50;99.90
22526;DHT22;11429;50.842;4.386;2022-10-31T12:02:21;18.40;99.90
22526;DHT22;11429;50.842;4.386;2022-10-31T12:05:11;18.50;99.90
22526;DHT22;11429;50.842;4.386;2022-10-31T12:07:43;18.80;99.90
22526;DHT22;11429;50.842;4.386;2022-10-31T12:10:13;18.70;99.90
22526;DHT22;11429;50.842;4.386;2022-10-31T12:15:45;19.30;99.90
22526;DHT22;11429;50.842;4.386;2022-10-31T12:23:48;19.60;99.90
22526;DHT22;11429;50.842;4.386;2022-10-31T12:26:43;20.20;99.90
22526;DHT22;11429;50.842;4.386;2022-10-31T12:32:37;19.70;99.90
22526;DHT22;11429;50.842;4.386;2022-10-31T12:40:37;20.00;99.90
22526;DHT22;11429;50.842;4.386;2022-10-31T12:43:29;19.80;99.90
22526;DHT22;11429;50.842;4.386;2022-10-31T12:46:00;20.00;99.90
22526;DHT22;11429;50.842;4.386;2022-10-31T12:48:40;19.90;99.90
22526;DHT22;11429;50.842;4.386;2022-10-31T12:59:01;20.10;99.90
22526;DHT22;11429;50.842;4.386;2022-10-31T13:01:38;20.40;99.90
22526;DHT22;11429;50.842;4.386;2022-10-31T13:04:18;20.30;99.90
22526;DHT22;11429;50.842;4.386;2022-10-31T13:06:53;20.00;99.90
22526;DHT22;11429;50.842;4.386;2022-10-31T13:09:28;19.70;99.90
22526;DHT22;11429;50.842;4.386;2022-10-31T13:12:04;19.30;99.90
22526;DHT22;11429;50.842;4.386;2022-10-31T13:15:21;19.20;99.90
22526;DHT22;11429;50.842;4.386;2022-10-31T13:17:33;19.40;99.90
22526;DHT22;11429;50.842;4.386;2022-10-31T13:20:17;19.60;99.90
22526;DHT22;11429;50.842;4.386;2022-10-31T13:22:48;19.80;99.90
22526;DHT22;11429;50.842;4.386;2022-10-31T13:25:31;19.50;99.90
22526;DHT22;11429;50.842;4.386;2022-10-31T13:28:02;19.90;99.90
22526;DHT22;11429;50.842;4.386;2022-10-31T13:30:40;20.00;99.90
22526;DHT22;11429;50.842;4.386;2022-10-31T13:46:42;19.20;99.90
22526;DHT22;11429;50.842;4.386;2022-10-31T13:49:40;19.00;99.90
22526;DHT22;11429;50.842;4.386;2022-10-31T13:54:46;19.30;99.90
22526;DHT22;11429;50.842;4.386;2022-10-31T13:57:19;19.40;99.90
22526;DHT22;11429;50.842;4.386;2022-10-31T13:59:52;19.50;99.90
22526;DHT22;11429;50.842;4.386;2022-10-31T14:02:28;19.50;99.90
22526;DHT22;11429;50.842;4.386;2022-10-31T14:05:04;19.50;99.90
22526;DHT22;11429;50.842;4.386;2022-10-31T14:07:31;19.50;99.90
22526;DHT22;11429;50.842;4.386;2022-10-31T14:12:47;19.40;99.90
22526;DHT22;11429;50.842;4.386;2022-10-31T14:15:25;19.20;99.90
22526;DHT22;11429;50.842;4.386;2022-10-31T14:18:00;19.40;99.90
22526;DHT22;11429;50.842;4.386;2022-10-31T14:22:58;19.30;99.90
22526;DHT22;11429;50.842;4.386;2022-10-31T14:25:33;19.20;99.90
22526;DHT22;11429;50.842;4.386;2022-10-31T14:28:02;19.40;99.90
22526;DHT22;11429;50.842;4.386;2022-10-31T14:30:29;19.20;99.90
22526;DHT22;11429;50.842;4.386;2022-10-31T14:32:59;19.30;99.90
22526;DHT22;11429;50.842;4.386;2022-10-31T14:35:51;19.40;99.90
22526;DHT22;11429;50.842;4.386;2022-10-31T14:41:35;19.40;99.90
22526;DHT22;11429;50.842;4.386;2022-10-31T14:47:38;19.40;99.90
22526;DHT22;11429;50.842;4.386;2022-10-31T14:52:32;19.40;99.90
22526;DHT22;11429;50.842;4.386;2022-10-31T14:55:01;19.30;99.90
22526;DHT22;11429;50.842;4.386;2022-10-31T14:57:35;19.10;99.90
22526;DHT22;11429;50.842;4.386;2022-10-31T15:00:20;19.00;99.90
22526;DHT22;11429;50.842;4.386;2022-10-31T15:03:16;18.80;99.90
22526;DHT22;11429;50.842;4.386;2022-10-31T15:06:09;18.80;99.90
22526;DHT22;11429;50.842;4.386;2022-10-31T15:08:45;19.00;99.90
22526;DHT22;11429;50.842;4.386;2022-10-31T15:11:13;18.70;99.90
22526;DHT22;11429;50.842;4.386;2022-10-31T15:13:50;18.60;99.90
22526;DHT22;11429;50.842;4.386;2022-10-31T15:16:31;18.60;99.90
22526;DHT22;11429;50.842;4.386;2022-10-31T15:19:12;18.70;99.90
22526;DHT22;11429;50.842;4.386;2022-10-31T15:21:43;18.80;99.90
22526;DHT22;11429;50.842;4.386;2022-10-31T15:24:14;18.80;99.90
22526;DHT22;11429;50.842;4.386;2022-10-31T15:26:45;18.90;99.90
22526;DHT22;11429;50.842;4.386;2022-10-31T15:29:17;18.70;99.90
22526;DHT22;11429;50.842;4.386;2022-10-31T15:31:51;18.60;99.90
22526;DHT22;11429;50.842;4.386;2022-10-31T15:34:39;18.60;99.90
22526;DHT22;11429;50.842;4.386;2022-10-31T15:37:13;18.40;99.90
22526;DHT22;11429;50.842;4.386;2022-10-31T15:39:40;18.50;99.90
22526;DHT22;11429;50.842;4.386;2022-10-31T15:42:45;18.20;99.90
22526;DHT22;11429;50.842;4.386;2022-10-31T15:47:39;18.10;99.90
22526;DHT22;11429;50.842;4.386;2022-10-31T15:50:31;18.00;99.90
22526;DHT22;11429;50.842;4.386;2022-10-31T15:52:58;18.00;99.90
22526;DHT22;11429;50.842;4.386;2022-10-31T15:55:28;17.90;99.90
22526;DHT22;11429;50.842;4.386;2022-10-31T15:58:00;17.80;99.90
22526;DHT22;11429;50.842;4.386;2022-10-31T16:00:30;17.80;99.90
22526;DHT22;11429;50.842;4.386;2022-10-31T16:05:44;17.50;99.90
22526;DHT22;11429;50.842;4.386;2022-10-31T16:13:32;17.60;99.90
22526;DHT22;11429;50.842;4.386;2022-10-31T16:16:13;17.50;99.90
22526;DHT22;11429;50.842;4.386;2022-10-31T16:18:41;17.40;99.90
22526;DHT22;11429;50.842;4.386;2022-10-31T16:21:08;17.50;99.90
22526;DHT22;11429;50.842;4.386;2022-10-31T16:23:34;17.60;99.90
22526;DHT22;11429;50.842;4.386;2022-10-31T16:26:06;17.50;99.90
22526;DHT22;11429;50.842;4.386;2022-10-31T16:28:32;17.40;99.90
22526;DHT22;11429;50.842;4.386;2022-10-31T16:30:59;17.30;99.90
22526;DHT22;11429;50.842;4.386;2022-10-31T16:33:36;17.20;99.90
22526;DHT22;11429;50.842;4.386;2022-10-31T16:38:59;17.10;99.90
22526;DHT22;11429;50.842;4.386;2022-10-31T16:41:25;17.10;99.90
22526;DHT22;11429;50.842;4.386;2022-10-31T16:43:52;17.00;99.90
22526;DHT22;11429;50.842;4.386;2022-10-31T16:46:26;17.00;99.90
22526;DHT22;11429;50.842;4.386;2022-10-31T16:48:53;16.90;99.90
22526;DHT22;11429;50.842;4.386;2022-10-31T16:51:22;16.90;99.90
22526;DHT22;11429;50.842;4.386;2022-10-31T16:53:49;16.90;99.90
22526;DHT22;11429;50.842;4.386;2022-10-31T16:56:31;16.80;99.90
22526;DHT22;11429;50.842;4.386;2022-10-31T16:58:59;16.80;99.90
22526;DHT22;11429;50.842;4.386;2022-10-31T17:01:30;16.80;99.90
22526;DHT22;11429;50.842;4.386;2022-10-31T17:03:55;16.70;99.90
22526;DHT22;11429;50.842;4.386;2022-10-31T17:06:21;16.60;99.90
22526;DHT22;11429;50.842;4.386;2022-10-31T17:08:47;16.70;99.90
22526;DHT22;11429;50.842;4.386;2022-10-31T17:11:21;16.80;99.90
22526;DHT22;11429;50.842;4.386;2022-10-31T17:13:48;16.80;99.90
22526;DHT22;11429;50.842;4.386;2022-10-31T17:16:17;16.80;99.90
22526;DHT22;11429;50.842;4.386;2022-10-31T17:18:43;16.80;99.90
22526;DHT22;11429;50.842;4.386;2022-10-31T17:21:28;16.80;99.90
22526;DHT22;11429;50.842;4.386;2022-10-31T17:23:55;16.80;99.90
22526;DHT22;11429;50.842;4.386;2022-10-31T17:26:21;16.90;99.90
22526;DHT22;11429;50.842;4.386;2022-10-31T17:28:50;16.90;99.90
22526;DHT22;11429;50.842;4.386;2022-10-31T17:31:30;16.90;99.90
22526;DHT22;11429;50.842;4.386;2022-10-31T17:33:58;16.90;99.90
22526;DHT22;11429;50.842;4.386;2022-10-31T17:36:25;16.90;99.90
22526;DHT22;11429;50.842;4.386;2022-10-31T17:38:54;16.90;99.90
22526;DHT22;11429;50.842;4.386;2022-10-31T17:41:26;16.90;99.90
22526;DHT22;11429;50.842;4.386;2022-10-31T17:43:56;17.00;99.90
22526;DHT22;11429;50.842;4.386;2022-10-31T17:46:25;17.00;99.90
22526;DHT22;11429;50.842;4.386;2022-10-31T17:48:57;17.00;99.90
22526;DHT22;11429;50.842;4.386;2022-10-31T17:51:25;16.90;99.90
22526;DHT22;11429;50.842;4.386;2022-10-31T17:53:50;17.00;99.90
22526;DHT22;11429;50.842;4.386;2022-10-31T17:56:16;17.00;99.90
22526;DHT22;11429;50.842;4.386;2022-10-31T17:58:42;16.90;99.90
22526;DHT22;11429;50.842;4.386;2022-10-31T18:01:15;16.90;99.90
22526;DHT22;11429;50.842;4.386;2022-10-31T18:03:41;16.90;99.90
22526;DHT22;11429;50.842;4.386;2022-10-31T18:06:07;16.90;99.90
22526;DHT22;11429;50.842;4.386;2022-10-31T18:08:38;16.90;99.90
22526;DHT22;11429;50.842;4.386;2022-10-31T18:11:05;16.80;99.90
22526;DHT22;11429;50.842;4.386;2022-10-31T18:13:34;16.90;99.90
22526;DHT22;11429;50.842;4.386;2022-10-31T18:16:00;16.80;99.90
22526;DHT22;11429;50.842;4.386;2022-10-31T18:18:26;16.80;99.90
22526;DHT22;11429;50.842;4.386;2022-10-31T18:20:55;16.80;99.90